createdAt,value
2023-03-10T00:01:17.968Z,98758.44
2023-03-10T00:03:46.303Z,98767.03
2023-03-10T00:06:16.067Z,98775.06
2023-03-10T00:08:44.368Z,98766.75
2023-03-10T00:11:12.481Z,98766.06
2023-03-10T00:13:41.787Z,98754.34
2023-03-10T00:16:11.026Z,98755.03
2023-03-10T00:18:38.826Z,98755.88
2023-03-10T00:21:07.104Z,98749.53
2023-03-10T00:23:37.388Z,98741.50
2023-03-10T00:26:05.455Z,98738.81
2023-03-10T00:28:33.175Z,98736.97
2023-03-10T00:31:04.280Z,98736.97
2023-03-10T00:33:33.119Z,98733.31
2023-03-10T00:36:06.669Z,98730.78
2023-03-10T00:38:35.403Z,98738.66
2023-03-10T00:41:05.481Z,98731.59
2023-03-10T00:43:33.828Z,98729.78
2023-03-10T00:46:03.042Z,98735.97
2023-03-10T00:48:31.082Z,98736.13
2023-03-10T00:50:59.161Z,98734.28
2023-03-10T00:53:27.226Z,98745.72
2023-03-10T00:55:59.838Z,98748.25
2023-03-10T00:58:27.674Z,98745.41
2023-03-10T01:00:55.647Z,98753.75
2023-03-10T01:03:26.162Z,98752.47
2023-03-10T01:05:54.456Z,98746.28
2023-03-10T01:08:22.548Z,98740.75
2023-03-10T01:10:51.028Z,98735.72
2023-03-10T01:13:20.335Z,98728.19
2023-03-10T01:15:48.886Z,98720.44
2023-03-10T01:18:18.058Z,98718.31
2023-03-10T01:20:47.601Z,98716.06
2023-03-10T01:23:17.139Z,98714.94
2023-03-10T01:25:45.591Z,98705.06
2023-03-10T01:28:13.603Z,98701.69
2023-03-10T01:30:41.832Z,98699.00
2023-03-10T01:33:10.550Z,98702.50
2023-03-10T01:35:39.080Z,98699.28
2023-03-10T01:38:09.216Z,98696.03
2023-03-10T01:40:37.845Z,98693.91
2023-03-10T01:43:39.777Z,98696.59
2023-03-10T01:46:38.455Z,98701.38
2023-03-10T01:49:12.934Z,98694.34
2023-03-10T01:51:44.605Z,98687.28
2023-03-10T01:54:17.764Z,98675.59
2023-03-10T01:56:47.173Z,98673.88
2023-03-10T01:59:15.645Z,98671.19
2023-03-10T02:01:43.873Z,98661.88
2023-03-10T02:04:17.070Z,98669.19
2023-03-10T02:06:48.635Z,98670.91
2023-03-10T02:09:19.501Z,98666.41
2023-03-10T02:11:49.051Z,98665.69
2023-03-10T02:14:17.408Z,98659.78
2023-03-10T02:16:45.379Z,98660.47
2023-03-10T02:19:22.753Z,98652.28
2023-03-10T02:21:58.266Z,98649.44
2023-03-10T02:24:34.271Z,98639.16
2023-03-10T02:27:05.443Z,98632.63
2023-03-10T02:29:52.575Z,98626.56
2023-03-10T02:32:26.831Z,98629.41
2023-03-10T02:34:54.698Z,98627.88
2023-03-10T02:37:24.116Z,98620.66
2023-03-10T02:39:51.900Z,98624.72
2023-03-10T02:42:20.580Z,98618.09
2023-03-10T02:44:50.062Z,98617.53
2023-03-10T02:47:17.890Z,98614.84
2023-03-10T02:49:45.842Z,98614.31
2023-03-10T02:52:22.660Z,98603.97
2023-03-10T02:54:50.415Z,98610.47
2023-03-10T02:57:18.177Z,98615.69
2023-03-10T02:59:45.929Z,98608.63
2023-03-10T03:02:14.995Z,98601.59
2023-03-10T03:04:42.765Z,98600.47
2023-03-10T03:07:10.484Z,98597.78
2023-03-10T03:09:38.476Z,98601.28
2023-03-10T03:12:06.684Z,98603.97
2023-03-10T03:14:34.422Z,98602.72
2023-03-10T03:17:02.234Z,98605.81
2023-03-10T03:19:31.399Z,98603.97
2023-03-10T03:21:59.171Z,98608.72
2023-03-10T03:24:27.067Z,98609.06
2023-03-10T03:26:54.937Z,98609.34
2023-03-10T03:29:22.694Z,98606.66
2023-03-10T03:31:50.525Z,98607.34
2023-03-10T03:34:20.696Z,98598.44
2023-03-10T03:36:49.850Z,98603.53
2023-03-10T03:39:17.685Z,98604.53
2023-03-10T03:41:45.677Z,98600.00
2023-03-10T03:44:13.406Z,98600.84
2023-03-10T03:46:41.238Z,98588.44
2023-03-10T03:49:10.556Z,98592.97
2023-03-10T03:51:38.651Z,98596.63
2023-03-10T03:54:07.894Z,98600.59
2023-03-10T03:56:35.701Z,98604.97
2023-03-10T03:59:03.515Z,98601.44
2023-03-10T04:01:31.245Z,98600.31
2023-03-10T04:03:59.052Z,98601.44
2023-03-10T04:06:26.827Z,98596.25
2023-03-10T04:08:54.603Z,98599.19
2023-03-10T04:11:23.738Z,98590.34
2023-03-10T04:13:51.480Z,98591.56
2023-03-10T04:16:19.282Z,98580.59
2023-03-10T04:18:47.033Z,98566.75
2023-03-10T04:21:14.745Z,98572.84
2023-03-10T04:23:43.792Z,98574.84
2023-03-10T04:26:11.903Z,98577.53
2023-03-10T04:28:40.999Z,98580.31
2023-03-10T04:31:15.458Z,98597.94
2023-03-10T04:33:43.324Z,98597.28
2023-03-10T04:36:11.230Z,98597.13
2023-03-10T04:38:40.061Z,98595.59
2023-03-10T04:41:09.501Z,98599.41
2023-03-10T04:43:38.385Z,98591.38
2023-03-10T04:46:08.408Z,98594.03
2023-03-10T04:48:36.777Z,98592.63
2023-03-10T04:51:07.433Z,98598.69
2023-03-10T04:53:35.586Z,98595.47
2023-03-10T04:56:05.273Z,98590.97
2023-03-10T04:58:34.098Z,98590.81
2023-03-10T05:01:03.716Z,98585.47
2023-03-10T05:03:32.993Z,98584.59
2023-03-10T05:06:00.723Z,98576.88
2023-03-10T05:08:28.580Z,98580.25
2023-03-10T05:10:56.631Z,98575.00
2023-03-10T05:13:24.423Z,98573.47
2023-03-10T05:15:52.334Z,98579.22
2023-03-10T05:18:20.148Z,98572.50
2023-03-10T05:20:54.285Z,98577.25
2023-03-10T05:23:22.093Z,98579.69
2023-03-10T05:25:49.861Z,98575.00
2023-03-10T05:28:17.791Z,98562.53
2023-03-10T05:30:45.782Z,98565.59
2023-03-10T05:33:13.525Z,98571.09
2023-03-10T05:35:41.390Z,98571.38
2023-03-10T05:38:10.495Z,98573.38
2023-03-10T05:40:38.233Z,98569.47
2023-03-10T05:43:05.984Z,98572.69
2023-03-10T05:45:33.739Z,98577.34
2023-03-10T05:48:01.716Z,98575.66
2023-03-10T05:50:30.410Z,98580.72
2023-03-10T05:52:58.086Z,98575.81
2023-03-10T05:55:29.059Z,98568.91
2023-03-10T05:57:56.866Z,98572.28
2023-03-10T06:00:25.251Z,98575.66
2023-03-10T06:02:53.314Z,98570.13
2023-03-10T06:05:21.188Z,98568.31
2023-03-10T06:07:48.996Z,98562.09
2023-03-10T06:10:16.775Z,98567.16
2023-03-10T06:12:45.899Z,98563.78
2023-03-10T06:15:13.654Z,98570.84
2023-03-10T06:17:41.401Z,98569.56
2023-03-10T06:20:09.911Z,98570.25
2023-03-10T06:22:37.808Z,98575.91
2023-03-10T06:25:06.617Z,98567.00
2023-03-10T06:35:33.156Z,98572.25
2023-03-10T06:38:01.090Z,98574.47
2023-03-10T06:40:28.887Z,98574.47
2023-03-10T06:42:56.635Z,98565.88
2023-03-10T06:45:24.341Z,98577.47
2023-03-10T06:47:52.150Z,98579.16
2023-03-10T06:50:20.124Z,98570.69
2023-03-10T06:52:49.245Z,98572.94
2023-03-10T06:55:17.534Z,98567.56
2023-03-10T06:57:45.321Z,98576.75
2023-03-10T07:00:18.218Z,98574.63
2023-03-10T07:02:48.392Z,98578.13
2023-03-10T07:05:16.198Z,98577.84
2023-03-10T07:07:44.059Z,98574.03
2023-03-10T07:10:13.954Z,98568.66
2023-03-10T07:12:41.731Z,98577.25
2023-03-10T07:15:10.453Z,98571.63
2023-03-10T07:17:38.316Z,98578.09
2023-03-10T07:20:07.237Z,98578.09
2023-03-10T07:22:35.007Z,98583.16
2023-03-10T07:25:02.929Z,98581.63
2023-03-10T07:27:32.104Z,98585.47
2023-03-10T07:29:59.902Z,98591.50
2023-03-10T07:32:27.690Z,98597.81
2023-03-10T07:34:55.491Z,98597.50
2023-03-10T07:37:23.327Z,98605.00
2023-03-10T07:39:51.339Z,98596.97
2023-03-10T07:42:19.073Z,98601.34
2023-03-10T07:44:48.257Z,98615.28
2023-03-10T07:47:16.135Z,98615.00
2023-03-10T07:49:46.866Z,98607.63
2023-03-10T07:52:15.412Z,98611.31
2023-03-10T07:54:44.366Z,98613.00
2023-03-10T07:57:12.650Z,98609.34
2023-03-10T07:59:40.826Z,98619.91
2023-03-10T08:02:13.319Z,98613.56
2023-03-10T08:04:41.536Z,98612.56
2023-03-10T08:07:10.107Z,98612.19
2023-03-10T08:09:37.961Z,98614.84
2023-03-10T08:12:06.368Z,98612.19
2023-03-10T08:14:34.172Z,98615.69
2023-03-10T08:17:01.897Z,98616.22
2023-03-10T08:19:31.040Z,98617.50
2023-03-10T08:21:59.031Z,98611.56
2023-03-10T08:24:27.161Z,98604.34
2023-03-10T08:26:55.131Z,98614.09
2023-03-10T08:29:22.936Z,98612.41
2023-03-10T08:31:50.716Z,98611.41
2023-03-10T08:34:20.249Z,98606.06
2023-03-10T08:36:49.348Z,98607.91
2023-03-10T08:39:17.134Z,98602.97
2023-03-10T08:41:49.185Z,98601.28
2023-03-10T08:44:18.806Z,98611.31
2023-03-10T08:46:48.923Z,98607.47
2023-03-10T08:49:18.409Z,98604.13
2023-03-10T08:51:46.294Z,98614.31
2023-03-10T08:54:18.404Z,98615.41
2023-03-10T08:56:46.152Z,98608.19
2023-03-10T08:59:13.946Z,98619.19
2023-03-10T09:01:42.529Z,98622.00
2023-03-10T09:04:11.423Z,98627.22
2023-03-10T09:06:39.687Z,98626.13
2023-03-10T09:09:10.005Z,98626.81
2023-03-10T09:11:41.024Z,98626.69
2023-03-10T09:14:11.069Z,98624.66
2023-03-10T09:16:40.273Z,98630.50
2023-03-10T09:19:08.242Z,98627.81
2023-03-10T09:21:36.411Z,98620.31
2023-03-10T09:24:04.711Z,98624.53
2023-03-10T09:26:32.494Z,98627.91
2023-03-10T09:29:02.046Z,98633.69
2023-03-10T09:31:33.092Z,98629.00
2023-03-10T09:34:01.374Z,98624.78
2023-03-10T09:36:29.832Z,98628.59
2023-03-10T09:38:58.647Z,98636.09
2023-03-10T09:41:43.141Z,98640.91
2023-03-10T09:44:26.205Z,98633.03
2023-03-10T09:47:07.327Z,98643.16
2023-03-10T09:49:38.384Z,98646.69
2023-03-10T09:52:19.098Z,98650.06
2023-03-10T09:54:56.460Z,98665.22
2023-03-10T09:57:24.591Z,98664.06
2023-03-10T09:59:59.153Z,98667.75
2023-03-10T10:02:31.956Z,98668.50
2023-03-10T10:05:08.005Z,98673.66
2023-03-10T10:07:43.553Z,98675.78
2023-03-10T10:10:17.854Z,98679.03
2023-03-10T10:12:47.365Z,98683.56
2023-03-10T10:15:18.863Z,98682.69
2023-03-10T10:18:05.476Z,98690.09
2023-03-10T10:20:43.316Z,98682.06
2023-03-10T10:23:22.361Z,98690.63
2023-03-10T10:25:50.593Z,98687.25
2023-03-10T10:28:26.249Z,98689.06
2023-03-10T10:31:11.772Z,98691.03
2023-03-10T10:33:54.434Z,98699.22
2023-03-10T10:36:24.892Z,98697.13
2023-03-10T10:38:54.288Z,98698.25
2023-03-10T10:41:25.228Z,98696.31
2023-03-10T10:43:53.414Z,98689.97
2023-03-10T10:46:28.955Z,98700.53
2023-03-10T10:49:07.559Z,98696.56
2023-03-10T10:51:37.899Z,98700.34
2023-03-10T10:54:23.220Z,98699.38
2023-03-10T10:56:55.013Z,98704.88
2023-03-10T10:59:24.378Z,98711.25
2023-03-10T11:01:56.169Z,98711.09
2023-03-10T11:04:25.664Z,98717.91
2023-03-10T11:06:54.573Z,98722.81
2023-03-10T11:09:24.078Z,98719.16
2023-03-10T11:12:03.153Z,98725.81
2023-03-10T11:14:42.769Z,98712.13
2023-03-10T11:17:16.428Z,98720.44
2023-03-10T11:19:59.469Z,98710.47
2023-03-10T11:22:38.673Z,98718.63
2023-03-10T11:25:16.812Z,98714.69
2023-03-10T11:27:53.756Z,98708.38
2023-03-10T11:30:27.153Z,98709.91
2023-03-10T11:33:06.590Z,98697.91
2023-03-10T11:35:43.814Z,98691.97
2023-03-10T11:38:34.193Z,98694.38
2023-03-10T11:41:07.679Z,98691.56
2023-03-10T11:43:49.841Z,98684.50
2023-03-10T11:46:22.624Z,98693.50
2023-03-10T11:49:03.162Z,98701.00
2023-03-10T11:51:40.057Z,98694.09
2023-03-10T11:54:15.616Z,98695.53
2023-03-10T11:56:44.240Z,98688.75
2023-03-10T11:59:16.997Z,98713.00
2023-03-10T12:01:49.333Z,98704.66
2023-03-10T12:04:22.945Z,98700.56
2023-03-10T12:06:54.752Z,98696.81
2023-03-10T12:09:40.538Z,98702.19
2023-03-10T12:12:13.623Z,98724.03
2023-03-10T12:14:43.424Z,98724.34
2023-03-10T12:17:14.260Z,98719.53
2023-03-10T12:20:12.068Z,98717.00
2023-03-10T12:22:41.094Z,98707.28
2023-03-10T12:25:42.336Z,98691.19
2023-03-10T12:28:24.686Z,98694.69
2023-03-10T12:30:57.429Z,98698.06
2023-03-10T12:33:42.871Z,98718.66
2023-03-10T12:36:15.186Z,98724.03
2023-03-10T12:38:46.158Z,98720.22
2023-03-10T12:41:15.575Z,98744.06
2023-03-10T12:44:08.365Z,98743.09
2023-03-10T12:46:45.540Z,98729.41
2023-03-10T12:49:33.354Z,98740.84
2023-03-10T12:52:17.036Z,98739.56
2023-03-10T12:55:03.453Z,98737.03
2023-03-10T12:57:38.026Z,98745.47
2023-03-10T13:00:15.425Z,98761.16
2023-03-10T13:02:51.647Z,98763.25
2023-03-10T13:05:23.220Z,98784.97
2023-03-10T13:07:55.923Z,98782.41
2023-03-10T13:10:25.844Z,98787.22
2023-03-10T13:12:57.880Z,98787.50
2023-03-10T13:15:30.217Z,98802.03
2023-03-10T13:18:11.284Z,98809.91
2023-03-10T13:20:39.631Z,98829.34
2023-03-10T13:23:21.897Z,98859.88
2023-03-10T13:25:54.194Z,98880.91
2023-03-10T13:28:22.267Z,98894.72
2023-03-10T13:30:50.118Z,98920.91
2023-03-10T13:33:24.679Z,98935.41
2023-03-10T13:35:53.616Z,98968.25
2023-03-10T13:38:24.703Z,98967.31
2023-03-10T13:41:00.810Z,99004.13
2023-03-10T13:43:39.645Z,99033.47
2023-03-10T13:46:15.519Z,99056.28
2023-03-10T13:48:44.516Z,99068.38
2023-03-10T13:51:21.640Z,99094.66
2023-03-10T13:53:53.382Z,99134.53
2023-03-10T13:56:24.579Z,99126.25
2023-03-10T13:58:55.194Z,99144.50
2023-03-10T14:01:26.191Z,99169.53
2023-03-10T14:03:57.205Z,99173.91
2023-03-10T14:06:25.823Z,99196.13
2023-03-10T14:08:55.076Z,99206.94
2023-03-10T14:11:33.580Z,99209.81
2023-03-10T14:14:02.017Z,99231.34
2023-03-10T14:16:47.411Z,99236.94
2023-03-10T14:19:15.407Z,99237.91
2023-03-10T14:21:58.520Z,99253.06
2023-03-10T14:24:30.338Z,99266.72
2023-03-10T14:27:01.268Z,99288.56
2023-03-10T14:29:30.774Z,99297.94
2023-03-10T14:31:58.511Z,99308.47
2023-03-10T14:34:26.257Z,99335.16
2023-03-10T14:36:54.048Z,99342.56
2023-03-10T14:39:21.860Z,99385.50
2023-03-10T14:41:52.309Z,99390.44
2023-03-10T14:44:20.168Z,99414.78
2023-03-10T14:46:53.086Z,99415.53
2023-03-10T14:49:24.649Z,99410.41
2023-03-10T14:51:52.692Z,99413.09
2023-03-10T14:54:21.818Z,99436.59
2023-03-10T14:56:58.855Z,99439.19
2023-03-10T14:59:28.785Z,99455.31
2023-03-10T15:01:57.740Z,99456.59
2023-03-10T15:04:25.545Z,99488.81
2023-03-10T15:06:53.528Z,99511.34
2023-03-10T15:09:22.771Z,99515.84
2023-03-10T15:11:52.060Z,99523.50
2023-03-10T15:14:20.710Z,99527.91
2023-03-10T15:16:48.529Z,99539.84
2023-03-10T15:19:21.218Z,99538.03
2023-03-10T15:21:49.120Z,99577.94
2023-03-10T15:24:16.919Z,99588.84
2023-03-10T15:26:44.903Z,99585.31
2023-03-10T15:29:16.363Z,99594.38
2023-03-10T15:31:44.406Z,99636.34
2023-03-10T15:34:12.302Z,99643.38
2023-03-10T15:36:40.379Z,99655.25
2023-03-10T15:39:09.849Z,99661.75
2023-03-10T15:41:40.330Z,99650.56
2023-03-10T15:44:08.507Z,99650.34
2023-03-10T15:46:37.721Z,99682.78
2023-03-10T15:49:05.626Z,99692.00
2023-03-10T15:51:33.474Z,99706.09
2023-03-10T15:54:01.552Z,99732.69
2023-03-10T15:56:30.252Z,99758.06
2023-03-10T15:58:58.300Z,99754.41
2023-03-10T16:01:26.127Z,99759.09
2023-03-10T16:03:55.251Z,99769.66
2023-03-10T16:06:25.968Z,99787.38
2023-03-10T16:08:53.751Z,99798.97
2023-03-10T16:11:23.228Z,99816.50
2023-03-10T16:13:51.004Z,99812.00
2023-03-10T16:16:23.413Z,99805.31
2023-03-10T16:18:52.325Z,99825.13
2023-03-10T16:21:21.607Z,99817.97
2023-03-10T16:23:49.817Z,99823.19
2023-03-10T16:26:20.104Z,99836.88
2023-03-10T16:28:50.543Z,99851.31
2023-03-10T16:31:20.089Z,99856.75
2023-03-10T16:33:49.559Z,99858.16
2023-03-10T16:36:19.144Z,99854.19
2023-03-10T16:38:49.665Z,99861.69
2023-03-10T16:41:18.209Z,99879.16
2023-03-10T16:43:46.439Z,99897.84
2023-03-10T16:46:17.342Z,99915.28
2023-03-10T16:48:47.177Z,99915.16
2023-03-10T16:51:24.677Z,99913.06
2023-03-10T16:53:55.126Z,99934.63
2023-03-10T16:56:25.132Z,99945.00
2023-03-10T16:58:53.543Z,99936.72
2023-03-10T17:01:24.001Z,99945.88
2023-03-10T17:03:51.957Z,99943.00
2023-03-10T17:06:23.104Z,99954.34
2023-03-10T17:08:53.673Z,99957.22
2023-03-10T17:11:24.743Z,99983.75
2023-03-10T17:13:54.743Z,99993.47
2023-03-10T17:16:28.107Z,99998.50
2023-03-10T17:18:57.128Z,100006.72
2023-03-10T17:21:27.358Z,100009.78
2023-03-10T17:23:56.127Z,100018.53
2023-03-10T17:26:25.968Z,100026.66
2023-03-10T17:28:53.823Z,100031.72
2023-03-10T17:31:29.537Z,100036.88
2023-03-10T17:34:00.018Z,100040.69
2023-03-10T17:36:28.604Z,100047.59
2023-03-10T17:38:57.719Z,100069.25
2023-03-10T17:41:27.951Z,100074.66
2023-03-10T17:43:56.201Z,100090.50
2023-03-10T17:46:25.852Z,100096.81
2023-03-10T17:48:53.974Z,100099.97
2023-03-10T17:51:23.522Z,100114.84
2023-03-10T17:53:53.914Z,100114.16
2023-03-10T17:56:22.693Z,100130.69
2023-03-10T17:58:53.992Z,100138.59
2023-03-10T18:01:25.948Z,100147.56
2023-03-10T18:03:53.740Z,100159.22
2023-03-10T18:06:24.629Z,100174.94
2023-03-10T18:08:56.092Z,100178.97
2023-03-10T18:11:24.699Z,100177.91
2023-03-10T18:13:53.974Z,100182.91
2023-03-10T18:16:24.061Z,100177.81
2023-03-10T18:18:52.392Z,100187.25
2023-03-10T18:21:21.131Z,100197.66
2023-03-10T18:23:49.763Z,100194.53
2023-03-10T18:26:19.937Z,100202.47
2023-03-10T18:28:48.120Z,100204.47
2023-03-10T18:31:21.309Z,100199.31
2023-03-10T18:33:49.450Z,100214.41
2023-03-10T18:36:18.145Z,100207.81
2023-03-10T18:38:47.088Z,100210.78
2023-03-10T18:41:15.202Z,100227.75
2023-03-10T18:43:43.511Z,100234.94
2023-03-10T18:46:11.336Z,100236.56
2023-03-10T18:48:40.540Z,100250.19
2023-03-10T18:51:08.543Z,100255.16
2023-03-10T18:53:36.533Z,100255.72
2023-03-10T18:56:04.533Z,100272.53
2023-03-10T18:58:33.094Z,100272.34
2023-03-10T19:01:00.966Z,100272.34
2023-03-10T19:03:33.947Z,100280.28
2023-03-10T19:06:03.144Z,100281.81
2023-03-10T19:08:30.936Z,100289.94
2023-03-10T19:11:01.134Z,100307.59
2023-03-10T19:13:30.235Z,100313.78
2023-03-10T19:15:58.069Z,100326.13
2023-03-10T19:18:26.376Z,100328.78
2023-03-10T19:21:00.186Z,100336.91
2023-03-10T19:23:29.966Z,100334.91
2023-03-10T19:25:57.795Z,100344.56
2023-03-10T19:28:25.583Z,100358.88
2023-03-10T19:30:53.374Z,100351.34
2023-03-10T19:33:21.121Z,100359.28
2023-03-10T19:35:49.846Z,100369.19
2023-03-10T19:38:17.664Z,100367.97
2023-03-10T19:40:48.327Z,100356.22
2023-03-10T19:43:16.259Z,100367.69
2023-03-10T19:45:44.067Z,100375.53
2023-03-10T19:48:11.795Z,100377.16
2023-03-10T19:50:39.658Z,100373.81
2023-03-10T19:53:07.410Z,100378.13
2023-03-10T19:55:36.495Z,100379.94
2023-03-10T19:58:05.618Z,100375.94
2023-03-10T20:00:36.087Z,100383.00
2023-03-10T20:03:04.315Z,100378.91
2023-03-10T20:05:33.039Z,100395.22
2023-03-10T20:08:02.097Z,100397.91
2023-03-10T20:10:29.905Z,100393.22
2023-03-10T20:13:07.402Z,100401.47
2023-03-10T20:15:37.051Z,100404.69
2023-03-10T20:18:05.330Z,100402.03
2023-03-10T20:20:33.838Z,100414.06
2023-03-10T20:23:01.626Z,100413.97
2023-03-10T20:25:29.401Z,100422.19
2023-03-10T20:27:57.226Z,100423.16
2023-03-10T20:30:27.951Z,100416.66
2023-03-10T20:32:58.029Z,100434.34
2023-03-10T20:35:29.204Z,100435.00
2023-03-10T20:37:57.352Z,100441.22
2023-03-10T20:40:32.676Z,100454.31
2023-03-10T20:43:00.571Z,100456.03
2023-03-10T20:45:29.069Z,100460.53
2023-03-10T20:47:58.936Z,100460.25
2023-03-10T20:50:26.778Z,100465.41
2023-03-10T20:52:54.861Z,100474.41
2023-03-10T20:55:24.338Z,100476.69
2023-03-10T20:57:54.586Z,100484.56
2023-03-10T21:00:24.626Z,100488.34
2023-03-10T21:02:53.760Z,100492.59
2023-03-10T21:05:23.429Z,100492.88
2023-03-10T21:07:51.615Z,100506.41
2023-03-10T21:10:19.528Z,100510.75
2023-03-10T21:12:47.366Z,100506.53
2023-03-10T21:15:17.057Z,100512.56
2023-03-10T21:17:45.092Z,100516.97
2023-03-10T21:20:17.225Z,100517.53
2023-03-10T21:22:46.742Z,100527.56
2023-03-10T21:25:17.616Z,100520.84
2023-03-10T21:27:48.261Z,100534.25
2023-03-10T21:30:17.177Z,100535.13
2023-03-10T21:32:45.712Z,100540.75
2023-03-10T21:35:14.328Z,100550.66
2023-03-10T21:37:44.169Z,100561.06
2023-03-10T21:40:17.949Z,100573.50
2023-03-10T21:42:45.572Z,100570.81
2023-03-10T21:45:15.251Z,100581.88
2023-03-10T21:47:43.033Z,100582.66
2023-03-10T21:50:13.083Z,100578.84
2023-03-10T21:52:41.468Z,100580.69
2023-03-10T21:55:14.753Z,100579.63
2023-03-10T21:57:42.484Z,100590.66
2023-03-10T22:00:12.649Z,100594.53
2023-03-10T22:02:40.867Z,100599.09
2023-03-10T22:05:11.357Z,100603.72
2023-03-10T22:07:39.747Z,100598.78
2023-03-10T22:10:08.361Z,100604.59
2023-03-10T22:12:37.768Z,100606.31
2023-03-10T22:15:06.538Z,100602.88
2023-03-10T22:17:34.671Z,100603.91
2023-03-10T22:20:02.467Z,100601.31
2023-03-10T22:22:30.248Z,100615.41
2023-03-10T22:24:58.024Z,100620.91
2023-03-10T22:27:25.747Z,100612.81
2023-03-10T22:29:55.352Z,100619.59
2023-03-10T22:32:23.168Z,100628.00
2023-03-10T22:34:50.961Z,100631.00
2023-03-10T22:37:18.775Z,100638.00
2023-03-10T22:39:47.401Z,100639.81
2023-03-10T22:42:15.494Z,100626.91
2023-03-10T22:44:43.278Z,100639.38
2023-03-10T22:47:12.451Z,100633.44
2023-03-10T22:49:44.225Z,100643.53
2023-03-10T22:52:12.125Z,100646.81
2023-03-10T22:55:17.259Z,100648.81
2023-03-10T22:57:45.328Z,100645.19
2023-03-10T23:00:18.699Z,100655.00
2023-03-10T23:02:48.252Z,100648.72
2023-03-10T23:05:17.036Z,100649.94
2023-03-10T23:07:45.563Z,100664.94
2023-03-10T23:10:17.639Z,100676.41
2023-03-10T23:12:45.863Z,100675.63
2023-03-10T23:15:24.881Z,100677.63
2023-03-10T23:17:55.624Z,100682.19
2023-03-10T23:20:26.856Z,100689.59
2023-03-10T23:22:56.581Z,100699.69
2023-03-10T23:25:26.632Z,100687.59
2023-03-10T23:27:54.879Z,100706.94
2023-03-10T23:30:22.870Z,100708.91
2023-03-10T23:32:51.863Z,100710.03
2023-03-10T23:35:23.101Z,100708.06
2023-03-10T23:37:50.938Z,100704.59
2023-03-10T23:40:20.583Z,100704.91
2023-03-10T23:42:48.754Z,100705.78
2023-03-10T23:45:19.446Z,100702.84
2023-03-10T23:47:48.202Z,100701.13
2023-03-10T23:50:20.323Z,100696.81
2023-03-10T23:52:50.191Z,100702.06
2023-03-10T23:55:20.840Z,100704.75
2023-03-10T23:57:49.076Z,100704.13
